Time;durP1;ratioP1;P1;durP2;ratioP2;P2;SDS_P1;SDS_P2;PMS_P1;PMS_P2;Temp;Humidity;BMP_temperature;BMP_pressure;BME280_temperature;BME280_humidity;BME280_pressure;Samples;Min_cycle;Max_cycle;Signal;HPM_P1;HPM_P2
2021/12/29 00:00:39;;;;;;;;;;;10.40;97.20;;;;;;5004810;28;19925;-60
2021/12/29 00:03:04;;;;;;;;;;;10.40;97.20;;;;;;5006616;28;20019;-60
2021/12/29 00:05:30;;;;;;;;;;;10.40;97.20;;;;;;5024663;28;19917;-60
2021/12/29 00:07:55;;;;;;;;;;;10.50;97.20;;;;;;5004663;28;19909;-60
2021/12/29 00:10:21;;;;;;;;;;;10.40;97.10;;;;;;5010224;28;19920;-60
2021/12/29 00:12:52;;;;;;;;;;;10.40;97.10;;;;;;5009515;28;19909;-61
2021/12/29 00:15:18;;;;;;;;;;;10.40;97.10;;;;;;5025883;28;19913;-61
2021/12/29 00:17:45;;;;;;;;;;;10.40;97.10;;;;;;5031924;28;20396;-60
2021/12/29 00:20:11;;;;;;;;;;;10.40;97.10;;;;;;5017953;28;20017;-60
2021/12/29 00:22:37;;;;;;;;;;;10.40;97.00;;;;;;5009954;28;19915;-60
2021/12/29 00:25:02;;;;;;;;;;;10.40;97.00;;;;;;5025609;28;20008;-60
2021/12/29 00:27:28;;;;;;;;;;;10.50;97.00;;;;;;5011201;28;19909;-60
2021/12/29 00:29:53;;;;;;;;;;;10.40;97.00;;;;;;5022388;28;19909;-61
2021/12/29 00:32:19;;;;;;;;;;;10.40;97.00;;;;;;5011979;28;19913;-60
2021/12/29 00:34:44;;;;;;;;;;;10.40;97.00;;;;;;5028835;28;19975;-60
2021/12/29 00:37:09;;;;;;;;;;;10.40;96.90;;;;;;5031368;28;20313;-60
2021/12/29 00:39:35;;;;;;;;;;;10.40;96.90;;;;;;5012298;28;19932;-60
2021/12/29 00:42:01;;;;;;;;;;;10.30;96.80;;;;;;5012850;28;19909;-60
2021/12/29 00:44:27;;;;;;;;;;;10.40;96.80;;;;;;5007814;28;19976;-61
2021/12/29 00:46:53;;;;;;;;;;;10.40;96.70;;;;;;5014170;28;19953;-60
2021/12/29 00:49:18;;;;;;;;;;;10.40;96.70;;;;;;5010164;28;19916;-60
2021/12/29 00:51:44;;;;;;;;;;;10.40;96.60;;;;;;5014153;28;19913;-61
2021/12/29 00:54:09;;;;;;;;;;;10.40;96.50;;;;;;5014666;28;20274;-60
2021/12/29 00:56:34;;;;;;;;;;;10.40;96.50;;;;;;5028933;28;19909;-60
2021/12/29 00:59:00;;;;;;;;;;;10.40;96.40;;;;;;4997921;28;19913;-61
2021/12/29 01:01:25;;;;;;;;;;;10.40;96.40;;;;;;5025492;28;19932;-60
2021/12/29 01:03:51;;;;;;;;;;;10.40;96.40;;;;;;4995175;28;19924;-60
2021/12/29 01:06:16;;;;;;;;;;;10.40;96.30;;;;;;5027355;28;19913;-60
2021/12/29 01:08:42;;;;;;;;;;;10.40;96.20;;;;;;5032604;28;19920;-60
2021/12/29 01:11:07;;;;;;;;;;;10.40;96.20;;;;;;4997367;28;19910;-60
2021/12/29 01:13:34;;;;;;;;;;;10.40;96.10;;;;;;5006866;28;20321;-60
2021/12/29 01:18:32;;;;;;;;;;;10.40;96.00;;;;;;5026112;28;20043;-60
2021/12/29 01:20:57;;;;;;;;;;;10.40;96.00;;;;;;5026799;28;19973;-60
2021/12/29 01:23:23;;;;;;;;;;;10.40;96.00;;;;;;5021734;28;20042;-60
2021/12/29 01:25:48;;;;;;;;;;;10.40;96.00;;;;;;5010954;28;19916;-60
2021/12/29 01:28:14;;;;;;;;;;;10.30;95.90;;;;;;5010299;28;19958;-60
2021/12/29 01:30:39;;;;;;;;;;;10.30;95.90;;;;;;5023082;28;20316;-60
2021/12/29 01:33:06;;;;;;;;;;;10.40;95.90;;;;;;5022617;28;19913;-60
2021/12/29 01:35:35;;;;;;;;;;;10.40;95.90;;;;;;5026744;28;20444;-61
2021/12/29 01:38:00;;;;;;;;;;;10.30;95.80;;;;;;5009358;28;19920;-60
2021/12/29 01:40:26;;;;;;;;;;;10.40;95.90;;;;;;5026604;28;19909;-60
2021/12/29 01:42:52;;;;;;;;;;;10.40;95.80;;;;;;5001922;28;19963;-60
2021/12/29 01:45:17;;;;;;;;;;;10.40;95.80;;;;;;5025868;28;20004;-60
2021/12/29 01:47:42;;;;;;;;;;;10.40;95.80;;;;;;5019609;28;20384;-61
2021/12/29 01:50:10;;;;;;;;;;;10.40;95.90;;;;;;5004575;28;20003;-61
2021/12/29 01:52:38;;;;;;;;;;;10.40;95.90;;;;;;5014498;28;19917;-60
2021/12/29 01:55:04;;;;;;;;;;;10.40;95.90;;;;;;5019157;28;20503;-60
2021/12/29 01:57:30;;;;;;;;;;;10.40;95.80;;;;;;5022793;28;19917;-60
2021/12/29 01:59:55;;;;;;;;;;;10.40;95.90;;;;;;5020901;28;19909;-60
2021/12/29 02:02:21;;;;;;;;;;;10.40;96.20;;;;;;5025421;28;19921;-60
2021/12/29 02:04:46;;;;;;;;;;;10.40;95.90;;;;;;5005166;28;19920;-60
2021/12/29 02:07:12;;;;;;;;;;;10.40;95.90;;;;;;5028505;28;20006;-60
2021/12/29 02:09:37;;;;;;;;;;;10.40;95.90;;;;;;5022774;28;19910;-60
2021/12/29 02:12:03;;;;;;;;;;;10.40;95.90;;;;;;5031533;28;19909;-60
2021/12/29 02:14:28;;;;;;;;;;;10.40;95.90;;;;;;5027692;28;19920;-60
2021/12/29 02:16:54;;;;;;;;;;;10.40;95.90;;;;;;5021798;28;19913;-61
2021/12/29 02:19:20;;;;;;;;;;;10.40;95.80;;;;;;5004954;28;19975;-60
2021/12/29 02:21:56;;;;;;;;;;;10.40;95.80;;;;;;5013858;28;19920;-61
2021/12/29 02:24:33;;;;;;;;;;;10.40;95.90;;;;;;5004595;28;20442;-60
2021/12/29 02:26:59;;;;;;;;;;;10.30;95.90;;;;;;5010730;28;19941;-60
2021/12/29 02:29:24;;;;;;;;;;;10.30;95.90;;;;;;5011483;28;19920;-60
2021/12/29 02:31:49;;;;;;;;;;;10.40;95.90;;;;;;5006455;28;19913;-60
2021/12/29 02:34:15;;;;;;;;;;;10.40;95.90;;;;;;5004921;28;19935;-60
2021/12/29 02:36:43;;;;;;;;;;;10.30;95.90;;;;;;5005204;28;20299;-61
2021/12/29 02:39:13;;;;;;;;;;;10.40;95.90;;;;;;5027817;28;19913;-60
2021/12/29 02:41:40;;;;;;;;;;;10.40;95.90;;;;;;5006587;28;19917;-61
2021/12/29 02:44:10;;;;;;;;;;;10.30;95.90;;;;;;5001091;28;19910;-60
2021/12/29 02:46:36;;;;;;;;;;;10.30;95.90;;;;;;5022967;28;20353;-60
2021/12/29 02:49:02;;;;;;;;;;;10.40;96.00;;;;;;5016445;28;19909;-60
2021/12/29 02:51:28;;;;;;;;;;;10.40;96.00;;;;;;5026025;28;19909;-60
2021/12/29 02:53:53;;;;;;;;;;;10.40;96.00;;;;;;5024302;28;19932;-60
2021/12/29 02:56:19;;;;;;;;;;;10.30;96.00;;;;;;5008511;28;20113;-60
2021/12/29 02:58:44;;;;;;;;;;;10.40;96.00;;;;;;5000878;28;19914;-60
2021/12/29 03:01:11;;;;;;;;;;;10.30;96.00;;;;;;5016574;28;19960;-61
2021/12/29 03:03:39;;;;;;;;;;;10.30;96.00;;;;;;5005062;28;19909;-60
2021/12/29 03:06:05;;;;;;;;;;;10.30;96.00;;;;;;5028605;28;19920;-60
2021/12/29 03:08:30;;;;;;;;;;;10.30;96.10;;;;;;5022594;28;19917;-60
2021/12/29 03:10:56;;;;;;;;;;;10.40;96.10;;;;;;5006480;28;19921;-60
2021/12/29 03:13:22;;;;;;;;;;;10.30;96.00;;;;;;5012173;28;19949;-60
2021/12/29 03:15:48;;;;;;;;;;;10.40;96.00;;;;;;5010288;28;20004;-60
2021/12/29 03:18:13;;;;;;;;;;;10.40;96.10;;;;;;5011674;28;20403;-60
2021/12/29 03:20:39;;;;;;;;;;;10.40;96.00;;;;;;5023286;28;19920;-60
2021/12/29 03:23:04;;;;;;;;;;;10.40;96.00;;;;;;5018512;28;20356;-60
2021/12/29 03:25:30;;;;;;;;;;;10.40;96.10;;;;;;5023824;28;19917;-60
2021/12/29 03:27:58;;;;;;;;;;;10.40;96.10;;;;;;5021772;28;19913;-61
2021/12/29 03:30:25;;;;;;;;;;;10.40;96.10;;;;;;5026118;28;19916;-60
2021/12/29 03:33:02;;;;;;;;;;;10.40;96.10;;;;;;5021117;28;20003;-60
2021/12/29 03:35:28;;;;;;;;;;;10.40;96.10;;;;;;5005209;28;20009;-61
2021/12/29 03:37:53;;;;;;;;;;;10.40;96.10;;;;;;5007520;28;20000;-60
2021/12/29 03:40:18;;;;;;;;;;;10.40;96.10;;;;;;5024163;28;19995;-61
2021/12/29 03:42:44;;;;;;;;;;;10.40;96.10;;;;;;5021464;28;19910;-60
2021/12/29 03:45:09;;;;;;;;;;;10.40;96.40;;;;;;5027018;28;20364;-60
2021/12/29 03:47:35;;;;;;;;;;;10.40;96.10;;;;;;5009935;28;19936;-61
2021/12/29 03:50:00;;;;;;;;;;;10.40;96.10;;;;;;5021920;28;19909;-60
2021/12/29 03:52:26;;;;;;;;;;;10.40;96.10;;;;;;5009183;28;20392;-60
2021/12/29 03:54:51;;;;;;;;;;;10.40;96.10;;;;;;5008662;28;20400;-60
2021/12/29 03:57:17;;;;;;;;;;;10.40;96.10;;;;;;5022816;28;20018;-60
2021/12/29 03:59:42;;;;;;;;;;;10.40;96.10;;;;;;5016979;28;19915;-60
2021/12/29 04:02:07;;;;;;;;;;;10.40;96.10;;;;;;5008748;28;19921;-60
2021/12/29 04:04:33;;;;;;;;;;;10.40;96.10;;;;;;5029550;28;19913;-60
2021/12/29 04:06:58;;;;;;;;;;;10.40;96.10;;;;;;4994447;28;19936;-60
2021/12/29 04:09:24;;;;;;;;;;;10.40;96.10;;;;;;5009444;28;20272;-60
2021/12/29 04:11:50;;;;;;;;;;;10.40;96.10;;;;;;5006108;28;19917;-60
2021/12/29 04:14:16;;;;;;;;;;;10.40;96.10;;;;;;5025125;28;19909;-60
2021/12/29 04:16:45;;;;;;;;;;;10.40;96.10;;;;;;5007698;28;19916;-60
2021/12/29 04:19:14;;;;;;;;;;;10.40;96.10;;;;;;5006767;28;19924;-60
2021/12/29 04:21:41;;;;;;;;;;;10.40;96.10;;;;;;5021417;28;19936;-60
2021/12/29 04:24:06;;;;;;;;;;;10.40;96.00;;;;;;4983134;28;19913;-60
2021/12/29 04:26:35;;;;;;;;;;;10.40;96.00;;;;;;5008456;28;20016;-60
2021/12/29 04:29:01;;;;;;;;;;;10.30;96.00;;;;;;5026355;28;19909;-60
2021/12/29 04:31:26;;;;;;;;;;;10.40;96.00;;;;;;5010070;28;20430;-60
2021/12/29 04:33:51;;;;;;;;;;;10.40;96.00;;;;;;5027679;28;19909;-60
2021/12/29 04:36:23;;;;;;;;;;;10.40;96.00;;;;;;5017400;28;19909;-60
2021/12/29 04:38:49;;;;;;;;;;;10.40;95.90;;;;;;5026645;28;20009;-60
2021/12/29 04:41:14;;;;;;;;;;;10.40;95.90;;;;;;5027280;28;19992;-60
2021/12/29 04:43:40;;;;;;;;;;;10.40;95.90;;;;;;5008595;28;20345;-60
2021/12/29 04:46:05;;;;;;;;;;;10.40;95.90;;;;;;5008626;28;19910;-60
2021/12/29 04:48:37;;;;;;;;;;;10.40;95.90;;;;;;5027676;28;19917;-60
2021/12/29 04:51:05;;;;;;;;;;;10.40;95.80;;;;;;5008360;28;19909;-60
2021/12/29 04:53:31;;;;;;;;;;;10.40;95.80;;;;;;5026874;28;19909;-60
2021/12/29 04:55:56;;;;;;;;;;;10.40;95.80;;;;;;5024653;28;19967;-59
2021/12/29 04:58:23;;;;;;;;;;;10.40;95.80;;;;;;5006812;28;20328;-60
2021/12/29 05:00:48;;;;;;;;;;;10.30;95.70;;;;;;5010779;28;19955;-60
2021/12/29 05:03:14;;;;;;;;;;;10.40;95.70;;;;;;5014926;28;19957;-60
2021/12/29 05:05:52;;;;;;;;;;;10.40;95.70;;;;;;5013687;28;19983;-60
2021/12/29 05:08:30;;;;;;;;;;;10.30;95.70;;;;;;5013464;28;19916;-60
2021/12/29 05:10:59;;;;;;;;;;;10.40;95.70;;;;;;5030704;28;20000;-59
2021/12/29 05:13:25;;;;;;;;;;;10.30;95.70;;;;;;5021052;28;20387;-60
2021/12/29 05:15:51;;;;;;;;;;;10.30;95.60;;;;;;5028840;28;19915;-60
2021/12/29 05:18:16;;;;;;;;;;;10.30;95.60;;;;;;5030409;28;19924;-60
2021/12/29 05:20:42;;;;;;;;;;;10.30;95.60;;;;;;5012349;28;19941;-60
2021/12/29 05:23:08;;;;;;;;;;;10.30;95.60;;;;;;5013940;28;19909;-60
2021/12/29 05:25:33;;;;;;;;;;;10.30;95.50;;;;;;4994672;28;19956;-60
2021/12/29 05:27:59;;;;;;;;;;;10.30;95.50;;;;;;5026267;28;19913;-60
2021/12/29 05:30:24;;;;;;;;;;;10.30;95.50;;;;;;5011087;28;19932;-60
2021/12/29 05:32:50;;;;;;;;;;;10.30;95.40;;;;;;5025048;28;19919;-60
2021/12/29 05:35:15;;;;;;;;;;;10.30;95.40;;;;;;5007139;28;19914;-60
2021/12/29 05:37:41;;;;;;;;;;;10.30;95.40;;;;;;5025112;28;19927;-60
2021/12/29 05:40:06;;;;;;;;;;;10.30;95.40;;;;;;5030151;28;20407;-60
2021/12/29 05:42:35;;;;;;;;;;;10.30;95.30;;;;;;5013801;28;19913;-60
2021/12/29 05:45:01;;;;;;;;;;;10.50;95.40;;;;;;5028291;28;19913;-60
2021/12/29 05:47:27;;;;;;;;;;;10.30;95.30;;;;;;5000756;28;20411;-60
2021/12/29 05:49:52;;;;;;;;;;;10.30;95.60;;;;;;5007843;28;19917;-61
2021/12/29 05:52:18;;;;;;;;;;;10.30;95.40;;;;;;5028475;28;20793;-60
2021/12/29 05:54:43;;;;;;;;;;;10.30;95.30;;;;;;5008276;28;19920;-60
2021/12/29 05:57:09;;;;;;;;;;;10.30;95.30;;;;;;5030336;28;20413;-60
2021/12/29 05:59:35;;;;;;;;;;;10.30;95.30;;;;;;5005586;28;19913;-60
2021/12/29 06:02:00;;;;;;;;;;;10.30;95.30;;;;;;5011973;28;19921;-60
2021/12/29 06:04:26;;;;;;;;;;;10.30;95.30;;;;;;5010093;28;19909;-61
2021/12/29 06:06:51;;;;;;;;;;;10.30;95.30;;;;;;5028301;28;19909;-60
2021/12/29 06:09:17;;;;;;;;;;;10.30;95.30;;;;;;5023508;28;19988;-60
2021/12/29 06:11:42;;;;;;;;;;;10.30;95.30;;;;;;5020184;28;20018;-60
2021/12/29 06:14:08;;;;;;;;;;;10.30;95.30;;;;;;5009465;28;20332;-60
2021/12/29 06:16:33;;;;;;;;;;;10.30;95.20;;;;;;5028631;28;19921;-60
2021/12/29 06:18:58;;;;;;;;;;;10.30;95.30;;;;;;5029748;28;20297;-60
2021/12/29 06:21:24;;;;;;;;;;;10.30;95.30;;;;;;5007710;28;19909;-60
2021/12/29 06:23:49;;;;;;;;;;;10.30;95.30;;;;;;5009133;28;20000;-60
2021/12/29 06:26:15;;;;;;;;;;;10.30;95.30;;;;;;5013200;28;19910;-60
2021/12/29 06:28:40;;;;;;;;;;;10.30;95.30;;;;;;5008034;28;19909;-60
2021/12/29 06:31:06;;;;;;;;;;;10.30;95.30;;;;;;5012093;28;20316;-60
2021/12/29 06:33:31;;;;;;;;;;;10.20;95.30;;;;;;5013019;28;19925;-60
2021/12/29 06:35:57;;;;;;;;;;;10.30;95.30;;;;;;5028921;28;19913;-60
2021/12/29 06:38:22;;;;;;;;;;;10.30;95.30;;;;;;5028807;28;19917;-60
2021/12/29 06:40:48;;;;;;;;;;;10.30;95.30;;;;;;5012550;28;20000;-60
2021/12/29 06:43:13;;;;;;;;;;;10.30;95.30;;;;;;5029019;28;19924;-60
2021/12/29 06:45:39;;;;;;;;;;;10.20;95.40;;;;;;5011057;28;19909;-60
2021/12/29 06:48:04;;;;;;;;;;;10.30;95.40;;;;;;5009390;28;19909;-60
2021/12/29 06:50:29;;;;;;;;;;;10.30;95.40;;;;;;5027859;28;20383;-60
2021/12/29 06:52:55;;;;;;;;;;;10.20;95.40;;;;;;5007701;28;20023;-59
2021/12/29 06:55:21;;;;;;;;;;;10.30;95.40;;;;;;5026142;28;19948;-60
2021/12/29 06:57:46;;;;;;;;;;;10.30;95.40;;;;;;5025241;28;19913;-60
2021/12/29 07:00:12;;;;;;;;;;;10.20;95.40;;;;;;5006311;28;19956;-60
2021/12/29 07:02:37;;;;;;;;;;;10.30;95.40;;;;;;5028738;28;20452;-60
2021/12/29 07:05:03;;;;;;;;;;;10.30;95.40;;;;;;5028002;28;19913;-60
2021/12/29 07:07:29;;;;;;;;;;;10.20;95.30;;;;;;5008956;28;19955;-60
2021/12/29 07:09:54;;;;;;;;;;;10.20;95.20;;;;;;5028683;28;20318;-60
2021/12/29 07:12:20;;;;;;;;;;;10.20;95.20;;;;;;5009695;28;19917;-60
2021/12/29 07:14:45;;;;;;;;;;;10.20;95.20;;;;;;4989395;28;20423;-60
2021/12/29 07:17:11;;;;;;;;;;;10.30;95.10;;;;;;5009469;28;20450;-60
2021/12/29 07:19:36;;;;;;;;;;;10.30;95.00;;;;;;5012147;28;19908;-60
2021/12/29 07:22:03;;;;;;;;;;;10.30;95.00;;;;;;5009311;28;20295;-60
2021/12/29 07:24:29;;;;;;;;;;;10.30;95.00;;;;;;5023717;28;19910;-60
2021/12/29 07:26:55;;;;;;;;;;;10.30;94.90;;;;;;5026889;28;19916;-60
2021/12/29 07:29:20;;;;;;;;;;;10.30;94.80;;;;;;5002373;28;19910;-60
2021/12/29 07:31:46;;;;;;;;;;;10.30;94.80;;;;;;5011460;28;19917;-60
2021/12/29 07:34:11;;;;;;;;;;;10.30;94.80;;;;;;5012371;28;19916;-60
2021/12/29 07:36:37;;;;;;;;;;;10.30;94.70;;;;;;5007440;28;20253;-60
2021/12/29 07:39:02;;;;;;;;;;;10.30;94.90;;;;;;5011309;28;19989;-60
2021/12/29 07:41:28;;;;;;;;;;;10.30;94.70;;;;;;5029920;28;19975;-60
2021/12/29 07:43:54;;;;;;;;;;;10.30;94.60;;;;;;5024353;28;19915;-60
2021/12/29 07:46:20;;;;;;;;;;;10.30;94.70;;;;;;5026560;28;19917;-60
2021/12/29 07:48:46;;;;;;;;;;;10.30;94.60;;;;;;5027376;28;19959;-60
2021/12/29 07:51:11;;;;;;;;;;;10.30;94.60;;;;;;5024980;28;19948;-60
2021/12/29 07:53:37;;;;;;;;;;;10.30;94.50;;;;;;5025111;28;19917;-61
2021/12/29 07:56:04;;;;;;;;;;;10.30;94.40;;;;;;5027978;28;19963;-63
2021/12/29 07:58:30;;;;;;;;;;;10.40;94.40;;;;;;5022664;28;19921;-60
2021/12/29 08:00:55;;;;;;;;;;;10.40;94.40;;;;;;5008258;28;19922;-60
2021/12/29 08:03:22;;;;;;;;;;;10.40;94.40;;;;;;5013851;28;20377;-60
2021/12/29 08:05:47;;;;;;;;;;;10.40;94.30;;;;;;5024082;28;19985;-60
2021/12/29 08:08:12;;;;;;;;;;;10.40;94.30;;;;;;5024647;28;20498;-62
2021/12/29 08:10:38;;;;;;;;;;;10.40;94.30;;;;;;5005325;28;20394;-60
2021/12/29 08:13:04;;;;;;;;;;;10.40;94.20;;;;;;5006107;28;19929;-60
2021/12/29 08:15:29;;;;;;;;;;;10.40;94.20;;;;;;5004916;28;20588;-60
2021/12/29 08:17:56;;;;;;;;;;;10.40;94.10;;;;;;4999183;28;19929;-60
2021/12/29 08:20:21;;;;;;;;;;;10.40;94.10;;;;;;5019630;28;20273;-60
2021/12/29 08:22:47;;;;;;;;;;;10.30;94.00;;;;;;5009331;28;19917;-60
2021/12/29 08:25:12;;;;;;;;;;;10.40;93.90;;;;;;5019540;28;19909;-60
2021/12/29 08:27:38;;;;;;;;;;;10.40;93.90;;;;;;5007827;28;19910;-60
2021/12/29 08:30:05;;;;;;;;;;;10.40;93.80;;;;;;5006288;28;19917;-60
2021/12/29 08:32:31;;;;;;;;;;;10.40;93.70;;;;;;5009399;28;19909;-61
2021/12/29 08:34:56;;;;;;;;;;;10.40;93.60;;;;;;5028415;28;20023;-60
2021/12/29 08:37:22;;;;;;;;;;;10.40;93.50;;;;;;5027273;28;19909;-60
2021/12/29 08:39:47;;;;;;;;;;;10.40;93.50;;;;;;4991371;28;19910;-60
2021/12/29 08:42:12;;;;;;;;;;;10.40;93.50;;;;;;5002674;28;20434;-60
2021/12/29 08:44:38;;;;;;;;;;;10.40;93.50;;;;;;5027539;28;19913;-60
2021/12/29 08:47:04;;;;;;;;;;;10.40;93.50;;;;;;5012777;28;19917;-60
2021/12/29 08:49:29;;;;;;;;;;;10.40;93.50;;;;;;5028012;28;19909;-60
2021/12/29 08:51:55;;;;;;;;;;;10.40;93.50;;;;;;5010830;28;19924;-60
2021/12/29 08:54:20;;;;;;;;;;;10.40;93.60;;;;;;5025755;28;19909;-60
2021/12/29 08:56:45;;;;;;;;;;;10.40;93.50;;;;;;5010105;28;19910;-60
2021/12/29 08:59:13;;;;;;;;;;;10.40;93.50;;;;;;5010133;28;20352;-62
2021/12/29 09:01:38;;;;;;;;;;;10.40;93.50;;;;;;5013907;28;20020;-60
2021/12/29 09:04:04;;;;;;;;;;;10.40;93.50;;;;;;5031129;28;19909;-59
2021/12/29 09:06:29;;;;;;;;;;;10.40;93.40;;;;;;5029466;28;19959;-60
2021/12/29 09:08:55;;;;;;;;;;;10.40;93.30;;;;;;5029800;28;19909;-60
2021/12/29 09:11:22;;;;;;;;;;;10.40;93.20;;;;;;5009502;28;21349;-60
2021/12/29 09:13:47;;;;;;;;;;;10.40;93.20;;;;;;5010457;28;20383;-60
2021/12/29 09:16:13;;;;;;;;;;;10.50;93.30;;;;;;5013182;28;19913;-60
2021/12/29 09:18:39;;;;;;;;;;;10.40;93.20;;;;;;5001479;28;20075;-60
2021/12/29 09:21:07;;;;;;;;;;;10.40;93.20;;;;;;5020357;28;20010;-60
2021/12/29 09:23:36;;;;;;;;;;;10.40;93.20;;;;;;5006702;28;19921;-60
2021/12/29 09:26:01;;;;;;;;;;;10.50;93.10;;;;;;5006366;28;19917;-60
2021/12/29 09:28:26;;;;;;;;;;;10.40;93.10;;;;;;5007967;28;19924;-60
2021/12/29 09:30:52;;;;;;;;;;;10.40;93.10;;;;;;5010888;28;19919;-60
2021/12/29 09:33:19;;;;;;;;;;;10.40;93.20;;;;;;4999271;28;20373;-60
2021/12/29 09:35:47;;;;;;;;;;;10.40;93.30;;;;;;5015208;28;20288;-60
2021/12/29 09:38:12;;;;;;;;;;;10.40;93.30;;;;;;4995347;28;19921;-60
2021/12/29 09:40:38;;;;;;;;;;;10.40;93.40;;;;;;5019334;28;19913;-60
2021/12/29 09:43:06;;;;;;;;;;;10.50;93.50;;;;;;5001059;28;19917;-60
2021/12/29 09:45:31;;;;;;;;;;;10.50;93.60;;;;;;5024347;28;20087;-60
2021/12/29 09:47:57;;;;;;;;;;;10.50;93.60;;;;;;5018529;28;20004;-60
2021/12/29 09:50:22;;;;;;;;;;;10.50;93.70;;;;;;5020386;28;20355;-60
2021/12/29 09:52:48;;;;;;;;;;;10.50;93.80;;;;;;5026901;28;19921;-60
2021/12/29 09:55:15;;;;;;;;;;;10.50;93.80;;;;;;5001625;28;19918;-61
2021/12/29 09:57:45;;;;;;;;;;;10.50;93.80;;;;;;5000599;28;19982;-60
2021/12/29 10:00:12;;;;;;;;;;;10.60;94.00;;;;;;5019003;28;20389;-60
2021/12/29 10:02:37;;;;;;;;;;;10.60;94.10;;;;;;5002024;28;20292;-60
2021/12/29 10:05:03;;;;;;;;;;;10.60;94.10;;;;;;5005714;28;19917;-60
2021/12/29 10:07:29;;;;;;;;;;;10.60;94.20;;;;;;5008257;28;19992;-60
2021/12/29 10:09:54;;;;;;;;;;;10.60;94.40;;;;;;5006881;28;20004;-60
2021/12/29 10:12:21;;;;;;;;;;;10.50;94.40;;;;;;5008550;28;19932;-60
2021/12/29 10:14:48;;;;;;;;;;;10.60;94.40;;;;;;5028852;28;20007;-60
2021/12/29 10:17:13;;;;;;;;;;;10.60;94.40;;;;;;4999637;28;20215;-60
2021/12/29 10:19:39;;;;;;;;;;;10.60;94.50;;;;;;5017192;28;20012;-60
2021/12/29 10:22:04;;;;;;;;;;;10.60;94.50;;;;;;4998843;28;20009;-61
2021/12/29 10:24:30;;;;;;;;;;;10.60;94.60;;;;;;5007532;28;19921;-60
2021/12/29 10:26:55;;;;;;;;;;;10.60;94.70;;;;;;5019862;28;20313;-60
2021/12/29 10:29:21;;;;;;;;;;;10.70;94.80;;;;;;5002622;28;19924;-60
2021/12/29 10:31:50;;;;;;;;;;;10.60;94.70;;;;;;5005785;28;20452;-60
2021/12/29 10:34:20;;;;;;;;;;;10.60;94.70;;;;;;5024940;28;20377;-60
2021/12/29 10:36:46;;;;;;;;;;;10.60;94.70;;;;;;5018032;28;20387;-60
2021/12/29 10:39:17;;;;;;;;;;;10.60;94.70;;;;;;4996439;28;20281;-60
2021/12/29 10:41:43;;;;;;;;;;;10.70;94.70;;;;;;5004388;28;19975;-60
2021/12/29 10:44:09;;;;;;;;;;;10.70;94.80;;;;;;5017658;28;19914;-60
2021/12/29 10:46:34;;;;;;;;;;;10.70;94.90;;;;;;5001227;28;20307;-60
2021/12/29 10:49:05;;;;;;;;;;;10.70;94.90;;;;;;5014769;28;19921;-60
2021/12/29 10:51:32;;;;;;;;;;;10.70;94.90;;;;;;4999301;28;19921;-60
2021/12/29 10:54:27;;;;;;;;;;;10.70;94.90;;;;;;5002646;28;20442;-60
2021/12/29 10:56:59;;;;;;;;;;;10.70;94.90;;;;;;5016496;28;20003;-60
2021/12/29 10:59:28;;;;;;;;;;;10.70;94.90;;;;;;5014381;28;20542;-60
2021/12/29 11:01:54;;;;;;;;;;;10.70;94.90;;;;;;5005824;28;20410;-60
2021/12/29 11:04:20;;;;;;;;;;;10.80;95.00;;;;;;5016389;28;19929;-60
2021/12/29 11:06:46;;;;;;;;;;;10.80;95.00;;;;;;4996215;28;19913;-60
2021/12/29 11:09:13;;;;;;;;;;;10.80;95.00;;;;;;4996390;28;19927;-60
2021/12/29 11:11:39;;;;;;;;;;;10.80;95.10;;;;;;5019601;28;19914;-60
2021/12/29 11:14:16;;;;;;;;;;;10.80;95.20;;;;;;4999366;28;19913;-60
2021/12/29 11:16:42;;;;;;;;;;;10.80;95.20;;;;;;5004255;28;19918;-60
2021/12/29 11:19:08;;;;;;;;;;;10.80;95.30;;;;;;5021100;28;20067;-60
2021/12/29 11:21:34;;;;;;;;;;;10.80;95.30;;;;;;5007945;28;20365;-60
2021/12/29 11:24:10;;;;;;;;;;;10.80;95.20;;;;;;5022202;28;20008;-60
2021/12/29 11:26:35;;;;;;;;;;;10.80;95.20;;;;;;5000721;28;19913;-60
2021/12/29 11:29:05;;;;;;;;;;;10.80;95.30;;;;;;4996797;28;19937;-60
2021/12/29 11:31:34;;;;;;;;;;;10.80;95.20;;;;;;5015970;28;20583;-60
2021/12/29 11:34:10;;;;;;;;;;;10.80;95.20;;;;;;5000772;28;20312;-60
2021/12/29 11:36:36;;;;;;;;;;;10.80;95.30;;;;;;5015891;28;19924;-60
2021/12/29 11:39:01;;;;;;;;;;;10.80;95.30;;;;;;4996911;28;19925;-60
2021/12/29 11:41:26;;;;;;;;;;;10.80;95.40;;;;;;5017066;28;20365;-60
2021/12/29 11:43:52;;;;;;;;;;;10.80;95.40;;;;;;5001066;28;20180;-60
2021/12/29 11:46:23;;;;;;;;;;;10.80;95.40;;;;;;4997441;28;19920;-60
2021/12/29 11:48:50;;;;;;;;;;;10.80;95.40;;;;;;4998472;28;19932;-60
2021/12/29 11:51:15;;;;;;;;;;;10.80;95.50;;;;;;4993804;28;19917;-60
2021/12/29 11:53:49;;;;;;;;;;;10.80;95.60;;;;;;5006911;28;19937;-60
2021/12/29 11:56:15;;;;;;;;;;;10.80;95.60;;;;;;5010698;28;20000;-60
2021/12/29 11:58:43;;;;;;;;;;;10.80;95.50;;;;;;4998107;28;20070;-61
2021/12/29 12:01:12;;;;;;;;;;;10.80;95.60;;;;;;5014511;28;19951;-60
2021/12/29 12:03:39;;;;;;;;;;;10.80;95.50;;;;;;4999271;28;20003;-60
2021/12/29 12:06:06;;;;;;;;;;;10.80;95.50;;;;;;4998806;28;19997;-60
2021/12/29 12:08:31;;;;;;;;;;;10.80;95.50;;;;;;4996570;28;19939;-60
2021/12/29 12:11:00;;;;;;;;;;;10.80;95.60;;;;;;4999808;28;19932;-60
2021/12/29 12:13:27;;;;;;;;;;;10.80;95.60;;;;;;5001608;28;19920;-60
2021/12/29 12:16:13;;;;;;;;;;;10.80;95.90;;;;;;5000270;28;20274;-61
2021/12/29 12:18:45;;;;;;;;;;;10.80;96.10;;;;;;4994905;28;19944;-60
2021/12/29 12:21:26;;;;;;;;;;;10.80;96.20;;;;;;5013947;28;19936;-60
2021/12/29 12:23:52;;;;;;;;;;;10.80;96.20;;;;;;5024353;28;19979;-60
2021/12/29 12:26:22;;;;;;;;;;;10.80;96.70;;;;;;5015216;28;19986;-60
2021/12/29 12:28:51;;;;;;;;;;;10.80;96.50;;;;;;5006788;28;19996;-60
2021/12/29 12:31:23;;;;;;;;;;;10.80;96.40;;;;;;5000843;28;20385;-60
2021/12/29 12:33:49;;;;;;;;;;;10.80;96.60;;;;;;5024208;28;19916;-60
2021/12/29 12:36:14;;;;;;;;;;;10.90;96.80;;;;;;5026890;28;19935;-60
2021/12/29 12:38:40;;;;;;;;;;;10.90;96.70;;;;;;5014579;28;19990;-60
2021/12/29 12:41:15;;;;;;;;;;;10.90;96.60;;;;;;5023656;28;19917;-60
2021/12/29 12:43:57;;;;;;;;;;;10.90;96.50;;;;;;5016144;28;19929;-60
2021/12/29 12:46:46;;;;;;;;;;;10.90;96.70;;;;;;5014150;28;19917;-60
2021/12/29 12:49:13;;;;;;;;;;;10.90;96.70;;;;;;5022076;28;20334;-60
2021/12/29 12:51:38;;;;;;;;;;;10.90;96.50;;;;;;5021561;28;19913;-60
2021/12/29 12:54:19;;;;;;;;;;;10.90;96.50;;;;;;4994952;28;19985;-60
2021/12/29 12:56:46;;;;;;;;;;;10.90;96.40;;;;;;5010120;28;19920;-60
2021/12/29 12:59:12;;;;;;;;;;;10.90;96.40;;;;;;5015051;28;20385;-60
2021/12/29 13:01:42;;;;;;;;;;;10.90;96.50;;;;;;5005417;28;19935;-60
2021/12/29 13:04:08;;;;;;;;;;;10.90;96.60;;;;;;5008799;28;19925;-60
2021/12/29 13:06:34;;;;;;;;;;;10.90;96.40;;;;;;5018200;28;19952;-59
2021/12/29 13:09:00;;;;;;;;;;;10.90;96.40;;;;;;5010968;28;19917;-60
2021/12/29 13:11:26;;;;;;;;;;;10.90;96.50;;;;;;5005491;28;20403;-60
2021/12/29 13:13:52;;;;;;;;;;;10.90;96.50;;;;;;5018079;28;20471;-61
2021/12/29 13:16:19;;;;;;;;;;;10.90;96.40;;;;;;5023349;28;19960;-60
2021/12/29 13:18:47;;;;;;;;;;;10.90;96.50;;;;;;5027619;28;20317;-60
2021/12/29 13:21:13;;;;;;;;;;;10.90;96.60;;;;;;5007657;28;19921;-60
2021/12/29 13:23:39;;;;;;;;;;;10.90;96.50;;;;;;5000131;28;19992;-60
2021/12/29 13:26:05;;;;;;;;;;;10.90;96.60;;;;;;5011396;28;20012;-60
2021/12/29 13:28:30;;;;;;;;;;;10.90;96.40;;;;;;4996526;28;19925;-60
2021/12/29 13:30:57;;;;;;;;;;;10.90;96.40;;;;;;5013589;28;19997;-60
2021/12/29 13:33:23;;;;;;;;;;;10.90;96.70;;;;;;5016552;28;19913;-60
2021/12/29 13:35:49;;;;;;;;;;;10.90;96.70;;;;;;5013758;28;19976;-60
2021/12/29 13:38:18;;;;;;;;;;;10.90;96.90;;;;;;5034198;28;19927;-59
2021/12/29 13:40:48;;;;;;;;;;;10.90;97.10;;;;;;5015347;28;19917;-60
2021/12/29 13:43:15;;;;;;;;;;;10.90;97.10;;;;;;5009405;28;20055;-60
2021/12/29 13:45:41;;;;;;;;;;;10.90;97.00;;;;;;5011195;28;20475;-60
2021/12/29 13:48:11;;;;;;;;;;;10.90;97.20;;;;;;5013447;28;20012;-60
2021/12/29 13:50:36;;;;;;;;;;;10.90;97.10;;;;;;4996522;28;19952;-60
2021/12/29 13:53:03;;;;;;;;;;;10.90;97.20;;;;;;5021547;28;19963;-60
2021/12/29 13:55:33;;;;;;;;;;;10.90;97.10;;;;;;5021199;28;19944;-60
2021/12/29 13:57:59;;;;;;;;;;;10.90;97.10;;;;;;5013985;28;20004;-60
2021/12/29 14:00:25;;;;;;;;;;;10.90;97.10;;;;;;5019816;28;19917;-60
2021/12/29 14:02:50;;;;;;;;;;;10.90;97.20;;;;;;5017108;28;20544;-60
2021/12/29 14:05:15;;;;;;;;;;;10.90;97.20;;;;;;5004077;28;19928;-60
2021/12/29 14:07:41;;;;;;;;;;;10.90;97.30;;;;;;5005479;28;20332;-60
2021/12/29 14:10:07;;;;;;;;;;;11.00;97.40;;;;;;5006835;28;19952;-60
2021/12/29 14:12:35;;;;;;;;;;;11.00;97.50;;;;;;5006874;28;20016;-60
2021/12/29 14:15:02;;;;;;;;;;;11.00;97.60;;;;;;5014925;28;19923;-60